FLI221 EKCH-EKVG
Flight info
| Callsign | FLI221 |
|---|---|
| Flight time | N/A |
| Altitude | 36000 |
| Route | GOLGA AMSEV ZOL GUNPA ROBUR |
| Aircraft | A320/L-SIDE3/2200 |
Departure
| Time | N/A |
|---|---|
| Airport | Copenhagen Kastrup Airport (EKCH) |
Arrival
| Time | 2026-05-07 14:36 |
|---|---|
| Airport | Vágar Airport (EKVG) |
| Time | Latitude | Longitude | Altitude | Speed | Heading |
|---|---|---|---|---|---|
| 2026-05-07 13:20 | 61.06077 | -0.37563 | 36002 ft | 405 kts | 283° |
| 2026-05-07 13:20 | 61.07837 | -0.48593 | 35994 ft | 407 kts | 283° |
| 2026-05-07 13:21 | 61.09598 | -0.59717 | 35980 ft | 407 kts | 283° |
| 2026-05-07 13:21 | 61.11348 | -0.70825 | 35988 ft | 407 kts | 283° |
| 2026-05-07 13:22 | 61.13098 | -0.82007 | 35985 ft | 407 kts | 283° |
| 2026-05-07 13:22 | 61.14834 | -0.93164 | 35970 ft | 407 kts | 283° |
| 2026-05-07 13:23 | 61.16551 | -1.04267 | 35967 ft | 407 kts | 283° |
| 2026-05-07 13:23 | 61.18270 | -1.15437 | 35702 ft | 406 kts | 283° |
| 2026-05-07 13:24 | 61.19125 | -1.21018 | 35023 ft | 404 kts | 282° |
| 2026-05-07 13:24 | 61.19969 | -1.26571 | 34408 ft | 400 kts | 282° |
| 2026-05-07 13:24 | 61.20789 | -1.31995 | 34070 ft | 395 kts | 282° |
| 2026-05-07 13:24 | 61.21607 | -1.37432 | 33928 ft | 393 kts | 282° |
| 2026-05-07 13:25 | 61.23238 | -1.48322 | 33956 ft | 397 kts | 281° |
| 2026-05-07 13:25 | 61.24884 | -1.59281 | 33957 ft | 398 kts | 281° |
| 2026-05-07 13:26 | 61.26514 | -1.70267 | 33944 ft | 398 kts | 281° |
| 2026-05-07 13:26 | 61.28138 | -1.81281 | 33944 ft | 398 kts | 281° |
| 2026-05-07 13:27 | 61.29752 | -1.92293 | 33945 ft | 398 kts | 281° |
| 2026-05-07 13:27 | 61.31354 | -2.03303 | 33932 ft | 398 kts | 281° |
| 2026-05-07 13:28 | 61.32946 | -2.14284 | 33933 ft | 402 kts | 281° |
| 2026-05-07 13:28 | 61.34555 | -2.25499 | 33918 ft | 405 kts | 281° |
| 2026-05-07 13:29 | 61.36165 | -2.36770 | 33918 ft | 406 kts | 281° |
| 2026-05-07 13:29 | 61.37766 | -2.48047 | 33919 ft | 406 kts | 281° |
| 2026-05-07 13:30 | 61.39361 | -2.59332 | 33910 ft | 405 kts | 281° |
| 2026-05-07 13:30 | 61.40947 | -2.70627 | 33910 ft | 405 kts | 281° |
| 2026-05-07 13:31 | 61.42506 | -2.81868 | 33918 ft | 406 kts | 281° |
| 2026-05-07 13:31 | 61.44065 | -2.93247 | 33896 ft | 408 kts | 281° |
| 2026-05-07 13:32 | 61.45630 | -3.04674 | 33896 ft | 409 kts | 281° |
| 2026-05-07 13:32 | 61.47191 | -3.16138 | 33882 ft | 409 kts | 281° |
| 2026-05-07 13:33 | 61.48744 | -3.27588 | 33883 ft | 409 kts | 281° |
| 2026-05-07 13:33 | 61.50273 | -3.38975 | 33868 ft | 409 kts | 280° |
| 2026-05-07 13:34 | 61.52559 | -3.56233 | 33881 ft | 410 kts | 280° |
| 2026-05-07 13:35 | 61.54069 | -3.67702 | 33860 ft | 411 kts | 280° |
| 2026-05-07 13:35 | 61.55584 | -3.79277 | 33860 ft | 411 kts | 280° |
| 2026-05-07 13:36 | 61.57086 | -3.90843 | 33860 ft | 411 kts | 279° |
| 2026-05-07 13:36 | 61.58578 | -4.02422 | 33843 ft | 411 kts | 279° |
| 2026-05-07 13:37 | 61.60060 | -4.14011 | 33844 ft | 411 kts | 279° |
| 2026-05-07 13:37 | 61.61533 | -4.25611 | 33859 ft | 411 kts | 279° |
| 2026-05-07 13:38 | 61.62993 | -4.37238 | 33836 ft | 412 kts | 279° |
| 2026-05-07 13:38 | 61.64451 | -4.48899 | 33838 ft | 412 kts | 279° |
| 2026-05-07 13:39 | 61.65886 | -4.60476 | 33825 ft | 412 kts | 279° |
| 2026-05-07 13:39 | 61.67319 | -4.72144 | 33825 ft | 411 kts | 278° |
| 2026-05-07 13:40 | 61.68736 | -4.83815 | 33811 ft | 411 kts | 278° |
| 2026-05-07 13:40 | 61.70153 | -4.95510 | 33810 ft | 411 kts | 278° |
| 2026-05-07 13:41 | 61.71563 | -5.07261 | 33810 ft | 416 kts | 278° |
| 2026-05-07 13:41 | 61.72974 | -5.19108 | 33796 ft | 417 kts | 278° |
| 2026-05-07 13:42 | 61.74372 | -5.30984 | 33795 ft | 417 kts | 278° |
| 2026-05-07 13:42 | 61.75765 | -5.42886 | 33720 ft | 415 kts | 278° |
| 2026-05-07 13:42 | 61.76454 | -5.48788 | 32941 ft | 415 kts | 278° |
| 2026-05-07 13:43 | 61.77142 | -5.54718 | 32018 ft | 415 kts | 277° |
| 2026-05-07 13:43 | 61.77828 | -5.60647 | 31152 ft | 416 kts | 277° |
| 2026-05-07 13:43 | 61.78512 | -5.66588 | 30280 ft | 416 kts | 277° |
| 2026-05-07 13:43 | 61.79194 | -5.72537 | 29330 ft | 417 kts | 276° |
| 2026-05-07 13:44 | 61.79868 | -5.78455 | 28172 ft | 421 kts | 276° |
| 2026-05-07 13:44 | 61.80550 | -5.84510 | 26985 ft | 426 kts | 276° |
| 2026-05-07 13:44 | 61.81237 | -5.90625 | 26186 ft | 430 kts | 276° |
| 2026-05-07 13:44 | 61.81932 | -5.96821 | 25899 ft | 435 kts | 277° |
| 2026-05-07 13:45 | 61.82635 | -6.03067 | 25720 ft | 437 kts | 277° |
| 2026-05-07 13:45 | 61.83340 | -6.09324 | 25764 ft | 437 kts | 277° |
| 2026-05-07 13:45 | 61.84044 | -6.15564 | 25115 ft | 434 kts | 278° |
| 2026-05-07 13:45 | 61.84962 | -6.21723 | 23994 ft | 440 kts | 282° |
| 2026-05-07 13:46 | 61.85953 | -6.27830 | 23095 ft | 437 kts | 282° |
| 2026-05-07 13:46 | 61.86931 | -6.33921 | 22110 ft | 435 kts | 282° |
| 2026-05-07 13:46 | 61.87882 | -6.39976 | 21491 ft | 427 kts | 282° |
| 2026-05-07 13:46 | 61.88795 | -6.45832 | 21389 ft | 411 kts | 282° |
| 2026-05-07 13:47 | 61.89686 | -6.51470 | 21259 ft | 396 kts | 282° |
| 2026-05-07 13:47 | 61.90556 | -6.56917 | 21121 ft | 383 kts | 282° |
| 2026-05-07 13:47 | 61.91403 | -6.62188 | 20975 ft | 371 kts | 282° |
| 2026-05-07 13:47 | 61.92226 | -6.67277 | 20850 ft | 359 kts | 282° |
| 2026-05-07 13:48 | 61.93028 | -6.72205 | 20716 ft | 347 kts | 282° |
| 2026-05-07 13:48 | 61.93810 | -6.76996 | 20450 ft | 341 kts | 282° |
| 2026-05-07 13:48 | 61.94461 | -6.81706 | 20069 ft | 331 kts | 271° |
| 2026-05-07 13:48 | 61.94508 | -6.86489 | 19630 ft | 322 kts | 260° |
| 2026-05-07 13:49 | 61.94375 | -6.91256 | 19165 ft | 323 kts | 260° |
| 2026-05-07 13:49 | 61.94233 | -6.96024 | 18723 ft | 324 kts | 260° |
| 2026-05-07 13:49 | 61.94084 | -7.00805 | 18293 ft | 325 kts | 260° |
| 2026-05-07 13:49 | 61.93934 | -7.05607 | 17843 ft | 326 kts | 260° |
| 2026-05-07 13:50 | 61.93783 | -7.10419 | 17419 ft | 325 kts | 260° |
| 2026-05-07 13:50 | 61.93634 | -7.15200 | 17029 ft | 323 kts | 260° |
| 2026-05-07 13:50 | 61.93486 | -7.19946 | 16672 ft | 321 kts | 261° |
| 2026-05-07 13:50 | 61.93336 | -7.24651 | 16373 ft | 318 kts | 261° |
| 2026-05-07 13:51 | 61.93186 | -7.29319 | 16009 ft | 316 kts | 261° |
| 2026-05-07 13:51 | 61.93036 | -7.33959 | 15638 ft | 315 kts | 261° |
| 2026-05-07 13:51 | 61.92882 | -7.38586 | 15273 ft | 313 kts | 261° |
| 2026-05-07 13:51 | 61.92724 | -7.43191 | 14907 ft | 313 kts | 260° |
| 2026-05-07 13:52 | 61.92619 | -7.46235 | 14667 ft | 312 kts | 260° |
| 2026-05-07 13:52 | 61.92574 | -7.50843 | 14279 ft | 316 kts | 274° |
| 2026-05-07 13:52 | 61.93330 | -7.55256 | 13933 ft | 324 kts | 300° |
| 2026-05-07 13:52 | 61.94899 | -7.58707 | 13575 ft | 328 kts | 326° |
| 2026-05-07 13:53 | 61.96991 | -7.60571 | 13206 ft | 327 kts | 352° |
| 2026-05-07 13:53 | 61.99228 | -7.60561 | 12825 ft | 320 kts | 16° |
| 2026-05-07 13:53 | 62.01234 | -7.58786 | 12456 ft | 309 kts | 40° |
| 2026-05-07 13:53 | 62.02722 | -7.55650 | 12087 ft | 295 kts | 65° |
| 2026-05-07 13:54 | 62.03530 | -7.51776 | 11731 ft | 280 kts | 85° |
| 2026-05-07 13:54 | 62.03777 | -7.47739 | 11373 ft | 274 kts | 91° |
| 2026-05-07 13:54 | 62.03876 | -7.43696 | 10979 ft | 273 kts | 93° |
| 2026-05-07 13:54 | 62.03921 | -7.39672 | 10624 ft | 270 kts | 95° |
| 2026-05-07 13:55 | 62.03956 | -7.35705 | 10340 ft | 266 kts | 94° |
| 2026-05-07 13:55 | 62.03994 | -7.31753 | 9939 ft | 266 kts | 94° |
| 2026-05-07 13:55 | 62.03831 | -7.27868 | 9542 ft | 260 kts | 110° |
| 2026-05-07 13:55 | 62.03154 | -7.24387 | 9190 ft | 253 kts | 125° |
| 2026-05-07 13:56 | 62.02019 | -7.21546 | 8668 ft | 253 kts | 143° |
| 2026-05-07 13:56 | 62.00520 | -7.19622 | 8149 ft | 253 kts | 160° |
| 2026-05-07 13:56 | 61.98821 | -7.18784 | 7748 ft | 251 kts | 176° |
| 2026-05-07 13:56 | 61.97084 | -7.19094 | 7346 ft | 252 kts | 192° |
| 2026-05-07 13:57 | 61.95468 | -7.20551 | 6951 ft | 255 kts | 208° |
| 2026-05-07 13:57 | 61.94132 | -7.23065 | 6772 ft | 263 kts | 227° |
| 2026-05-07 13:57 | 61.93204 | -7.26486 | 6771 ft | 273 kts | 244° |
| 2026-05-07 13:57 | 61.92838 | -7.30450 | 6769 ft | 282 kts | 262° |
| 2026-05-07 13:58 | 61.92780 | -7.34679 | 6771 ft | 284 kts | 263° |
| 2026-05-07 13:58 | 61.92715 | -7.38866 | 6772 ft | 283 kts | 263° |
| 2026-05-07 13:58 | 61.92646 | -7.42978 | 6771 ft | 283 kts | 262° |
| 2026-05-07 13:58 | 61.92573 | -7.47164 | 6771 ft | 284 kts | 264° |
| 2026-05-07 13:59 | 61.92686 | -7.51347 | 6731 ft | 287 kts | 282° |
| 2026-05-07 13:59 | 61.93569 | -7.55143 | 6736 ft | 291 kts | 309° |
| 2026-05-07 13:59 | 61.95158 | -7.57790 | 6741 ft | 294 kts | 336° |
| 2026-05-07 13:59 | 61.97131 | -7.58736 | 6754 ft | 291 kts | 4° |
| 2026-05-07 14:00 | 61.99071 | -7.57836 | 6756 ft | 285 kts | 28° |
| 2026-05-07 14:00 | 62.00628 | -7.55362 | 6756 ft | 276 kts | 55° |
| 2026-05-07 14:00 | 62.01543 | -7.51891 | 6757 ft | 266 kts | 79° |
| 2026-05-07 14:00 | 62.01825 | -7.48056 | 6781 ft | 262 kts | 91° |
| 2026-05-07 14:01 | 62.01924 | -7.44181 | 6785 ft | 263 kts | 91° |
| 2026-05-07 14:01 | 62.01978 | -7.40287 | 6781 ft | 262 kts | 92° |
| 2026-05-07 14:01 | 62.02022 | -7.36416 | 6781 ft | 261 kts | 94° |
| 2026-05-07 14:01 | 62.02063 | -7.32557 | 6784 ft | 261 kts | 95° |
| 2026-05-07 14:02 | 62.01775 | -7.28804 | 6780 ft | 256 kts | 114° |
| 2026-05-07 14:02 | 62.00872 | -7.25608 | 6783 ft | 250 kts | 135° |
| 2026-05-07 14:02 | 61.99506 | -7.23386 | 6782 ft | 250 kts | 154° |
| 2026-05-07 14:02 | 61.97834 | -7.22372 | 6782 ft | 250 kts | 174° |
| 2026-05-07 14:03 | 61.96100 | -7.22743 | 6776 ft | 256 kts | 195° |
| 2026-05-07 14:03 | 61.94536 | -7.24496 | 6776 ft | 262 kts | 216° |
| 2026-05-07 14:03 | 61.93361 | -7.27512 | 6775 ft | 270 kts | 238° |
| 2026-05-07 14:03 | 61.92829 | -7.31385 | 6778 ft | 280 kts | 261° |
| 2026-05-07 14:04 | 61.92752 | -7.35548 | 6774 ft | 283 kts | 263° |
| 2026-05-07 14:04 | 61.92685 | -7.39725 | 6772 ft | 282 kts | 265° |
| 2026-05-07 14:04 | 61.92617 | -7.43886 | 6773 ft | 283 kts | 264° |
| 2026-05-07 14:04 | 61.92548 | -7.48063 | 6769 ft | 283 kts | 265° |
| 2026-05-07 14:05 | 61.92810 | -7.52211 | 6725 ft | 287 kts | 288° |
| 2026-05-07 14:05 | 61.93868 | -7.55806 | 6734 ft | 291 kts | 314° |
| 2026-05-07 14:05 | 61.95451 | -7.58482 | 6681 ft | 290 kts | 323° |
| 2026-05-07 14:05 | 61.97105 | -7.60961 | 6203 ft | 292 kts | 325° |
| 2026-05-07 14:06 | 61.98767 | -7.63438 | 5788 ft | 290 kts | 325° |
| 2026-05-07 14:06 | 62.00433 | -7.65943 | 5297 ft | 293 kts | 324° |
| 2026-05-07 14:06 | 62.02073 | -7.68422 | 4914 ft | 290 kts | 326° |
| 2026-05-07 14:06 | 62.03635 | -7.71024 | 4785 ft | 280 kts | 324° |
| 2026-05-07 14:07 | 62.05116 | -7.73576 | 4653 ft | 268 kts | 324° |
| 2026-05-07 14:07 | 62.06533 | -7.76039 | 4520 ft | 257 kts | 324° |
| 2026-05-07 14:07 | 62.07879 | -7.78420 | 4397 ft | 247 kts | 324° |
| 2026-05-07 14:07 | 62.09205 | -7.80538 | 4307 ft | 226 kts | 342° |
| 2026-05-07 14:08 | 62.10626 | -7.81078 | 4129 ft | 196 kts | 17° |
| 2026-05-07 14:08 | 62.11922 | -7.80590 | 3835 ft | 186 kts | 25° |
| 2026-05-07 14:08 | 62.13040 | -7.79515 | 3634 ft | 172 kts | 50° |
| 2026-05-07 14:08 | 62.13688 | -7.77484 | 4060 ft | 161 kts | 77° |
| 2026-05-07 14:09 | 62.13816 | -7.75207 | 4691 ft | 153 kts | 101° |
| 2026-05-07 14:09 | 62.13446 | -7.73086 | 5162 ft | 159 kts | 123° |
| 2026-05-07 14:09 | 62.12538 | -7.71433 | 5381 ft | 188 kts | 147° |
| 2026-05-07 14:09 | 62.11329 | -7.70039 | 5697 ft | 212 kts | 147° |
| 2026-05-07 14:10 | 62.09947 | -7.68449 | 5925 ft | 230 kts | 148° |
| 2026-05-07 14:10 | 62.08545 | -7.66850 | 5940 ft | 232 kts | 148° |
| 2026-05-07 14:10 | 62.07120 | -7.65225 | 5920 ft | 232 kts | 148° |
| 2026-05-07 14:10 | 62.05696 | -7.63597 | 5920 ft | 232 kts | 148° |
| 2026-05-07 14:11 | 62.04262 | -7.61951 | 5921 ft | 232 kts | 148° |
| 2026-05-07 14:11 | 62.02835 | -7.60314 | 5921 ft | 233 kts | 148° |
| 2026-05-07 14:11 | 62.01404 | -7.58677 | 5931 ft | 234 kts | 150° |
| 2026-05-07 14:11 | 61.99939 | -7.56994 | 5924 ft | 243 kts | 152° |
| 2026-05-07 14:12 | 61.98455 | -7.55295 | 5935 ft | 248 kts | 152° |
| 2026-05-07 14:12 | 61.96931 | -7.53555 | 6705 ft | 249 kts | 152° |
| 2026-05-07 14:12 | 61.95407 | -7.51813 | 7627 ft | 249 kts | 152° |
| 2026-05-07 14:12 | 61.93862 | -7.50048 | 8431 ft | 255 kts | 152° |
| 2026-05-07 14:13 | 61.92288 | -7.48289 | 9343 ft | 257 kts | 156° |
| 2026-05-07 14:13 | 61.90568 | -7.47186 | 10101 ft | 262 kts | 173° |
| 2026-05-07 14:13 | 61.88748 | -7.47670 | 10766 ft | 272 kts | 198° |
| 2026-05-07 14:13 | 61.87220 | -7.50077 | 10951 ft | 283 kts | 229° |
| 2026-05-07 14:14 | 61.86510 | -7.54001 | 10999 ft | 296 kts | 262° |
| 2026-05-07 14:14 | 61.86890 | -7.58321 | 11004 ft | 307 kts | 294° |
| 2026-05-07 14:14 | 61.88271 | -7.61819 | 11011 ft | 314 kts | 318° |
| 2026-05-07 14:14 | 61.89971 | -7.64740 | 11005 ft | 315 kts | 321° |
| 2026-05-07 14:15 | 61.91730 | -7.67525 | 11006 ft | 316 kts | 322° |
| 2026-05-07 14:15 | 61.93514 | -7.70250 | 11004 ft | 316 kts | 326° |
| 2026-05-07 14:15 | 61.95533 | -7.71942 | 11019 ft | 314 kts | 356° |
| 2026-05-07 14:15 | 61.97651 | -7.71297 | 11023 ft | 306 kts | 29° |
| 2026-05-07 14:16 | 61.99252 | -7.68545 | 11018 ft | 293 kts | 62° |
| 2026-05-07 14:16 | 61.99885 | -7.64612 | 11020 ft | 278 kts | 94° |
| 2026-05-07 14:16 | 61.99446 | -7.60722 | 11021 ft | 269 kts | 122° |
| 2026-05-07 14:16 | 61.98258 | -7.57732 | 11022 ft | 265 kts | 142° |
| 2026-05-07 14:17 | 61.96809 | -7.55273 | 11021 ft | 266 kts | 144° |
| 2026-05-07 14:17 | 61.95333 | -7.52901 | 11001 ft | 266 kts | 144° |
| 2026-05-07 14:17 | 61.93872 | -7.50581 | 11004 ft | 266 kts | 144° |
| 2026-05-07 14:17 | 61.92383 | -7.48257 | 11043 ft | 265 kts | 148° |
| 2026-05-07 14:18 | 61.90679 | -7.46859 | 11039 ft | 265 kts | 172° |
| 2026-05-07 14:18 | 61.88845 | -7.47181 | 11035 ft | 269 kts | 196° |
| 2026-05-07 14:18 | 61.87217 | -7.49200 | 10899 ft | 275 kts | 218° |
| 2026-05-07 14:18 | 61.86108 | -7.52542 | 10521 ft | 284 kts | 244° |
| 2026-05-07 14:19 | 61.85809 | -7.56682 | 10139 ft | 294 kts | 271° |
| 2026-05-07 14:19 | 61.86450 | -7.60855 | 9871 ft | 299 kts | 300° |
| 2026-05-07 14:19 | 61.87902 | -7.63972 | 9575 ft | 301 kts | 329° |
| 2026-05-07 14:19 | 61.89842 | -7.65561 | 9188 ft | 300 kts | 344° |
| 2026-05-07 14:20 | 61.91842 | -7.66791 | 8815 ft | 299 kts | 345° |
| 2026-05-07 14:20 | 61.93837 | -7.68002 | 8446 ft | 297 kts | 345° |
| 2026-05-07 14:20 | 61.95796 | -7.69186 | 8088 ft | 296 kts | 345° |
| 2026-05-07 14:20 | 61.97767 | -7.70384 | 7745 ft | 294 kts | 345° |
| 2026-05-07 14:21 | 61.99722 | -7.71587 | 7408 ft | 291 kts | 344° |
| 2026-05-07 14:21 | 62.01672 | -7.72794 | 7014 ft | 291 kts | 347° |
| 2026-05-07 14:21 | 62.03639 | -7.73925 | 6513 ft | 293 kts | 355° |
| 2026-05-07 14:21 | 62.05600 | -7.73845 | 6354 ft | 273 kts | 18° |
| 2026-05-07 14:22 | 62.07296 | -7.72412 | 6242 ft | 251 kts | 39° |
| 2026-05-07 14:22 | 62.08547 | -7.70056 | 6039 ft | 231 kts | 61° |
| 2026-05-07 14:22 | 62.09319 | -7.67218 | 5731 ft | 219 kts | 76° |
| 2026-05-07 14:22 | 62.09908 | -7.64180 | 5160 ft | 226 kts | 63° |
| 2026-05-07 14:23 | 62.11186 | -7.62152 | 4588 ft | 241 kts | 25° |
| 2026-05-07 14:23 | 62.12895 | -7.62100 | 4035 ft | 251 kts | 0° |
| 2026-05-07 14:23 | 62.14586 | -7.62187 | 3460 ft | 233 kts | 23° |
| 2026-05-07 14:23 | 62.15898 | -7.60639 | 2973 ft | 204 kts | 56° |
| 2026-05-07 14:24 | 62.16447 | -7.58056 | 2473 ft | 188 kts | 88° |
| 2026-05-07 14:24 | 62.16097 | -7.55379 | 1967 ft | 193 kts | 118° |
| 2026-05-07 14:24 | 62.15247 | -7.53140 | 1534 ft | 191 kts | 125° |
| 2026-05-07 14:24 | 62.14303 | -7.51311 | 1447 ft | 175 kts | 140° |
| 2026-05-07 14:25 | 62.13244 | -7.50155 | 1445 ft | 167 kts | 145° |
| 2026-05-07 14:25 | 62.12199 | -7.49163 | 1452 ft | 164 kts | 146° |
| 2026-05-07 14:25 | 62.11154 | -7.48200 | 1442 ft | 162 kts | 146° |
| 2026-05-07 14:25 | 62.10130 | -7.47264 | 1456 ft | 162 kts | 146° |
| 2026-05-07 14:26 | 62.09192 | -7.46094 | 1461 ft | 149 kts | 122° |
| 2026-05-07 14:26 | 62.08624 | -7.44346 | 1467 ft | 140 kts | 108° |
| 2026-05-07 14:26 | 62.08254 | -7.42450 | 1436 ft | 129 kts | 102° |
| 2026-05-07 14:26 | 62.08066 | -7.40699 | 1058 ft | 118 kts | 95° |
| 2026-05-07 14:27 | 62.07958 | -7.38967 | 904 ft | 114 kts | 93° |
| 2026-05-07 14:27 | 62.07880 | -7.37253 | 923 ft | 114 kts | 93° |
| 2026-05-07 14:27 | 62.07802 | -7.35575 | 849 ft | 113 kts | 94° |
| 2026-05-07 14:27 | 62.07711 | -7.33856 | 825 ft | 118 kts | 102° |
| 2026-05-07 14:28 | 62.07470 | -7.32226 | 714 ft | 115 kts | 109° |
| 2026-05-07 14:28 | 62.07095 | -7.30700 | 524 ft | 113 kts | 114° |
| 2026-05-07 14:28 | 62.06745 | -7.29279 | 295 ft | 100 kts | 112° |
| 2026-05-07 14:28 | 62.06432 | -7.28047 | 482 ft | 106 kts | 115° |
| 2026-05-07 14:29 | 62.06023 | -7.26612 | 1207 ft | 117 kts | 120° |
| 2026-05-07 14:29 | 62.05106 | -7.25884 | 1668 ft | 182 kts | 176° |
| 2026-05-07 14:29 | 62.03849 | -7.27524 | 2184 ft | 243 kts | 231° |
| 2026-05-07 14:29 | 62.03358 | -7.31086 | 2852 ft | 263 kts | 258° |
| 2026-05-07 14:30 | 62.03147 | -7.34941 | 3006 ft | 262 kts | 265° |
| 2026-05-07 14:30 | 62.03147 | -7.38753 | 3022 ft | 263 kts | 281° |
| 2026-05-07 14:30 | 62.03677 | -7.42436 | 3033 ft | 261 kts | 293° |
| 2026-05-07 14:30 | 62.04349 | -7.46018 | 3029 ft | 258 kts | 294° |
| 2026-05-07 14:31 | 62.05036 | -7.49570 | 3020 ft | 259 kts | 295° |
| 2026-05-07 14:31 | 62.05721 | -7.53111 | 2699 ft | 258 kts | 295° |
| 2026-05-07 14:31 | 62.06393 | -7.56664 | 2410 ft | 254 kts | 295° |
| 2026-05-07 14:31 | 62.07245 | -7.59846 | 2113 ft | 242 kts | 322° |
| 2026-05-07 14:32 | 62.08592 | -7.61580 | 1809 ft | 219 kts | 355° |
| 2026-05-07 14:32 | 62.09914 | -7.61205 | 1751 ft | 173 kts | 40° |
| 2026-05-07 14:32 | 62.10859 | -7.59283 | 1667 ft | 211 kts | 62° |
| 2026-05-07 14:32 | 62.11160 | -7.56163 | 1841 ft | 218 kts | 100° |
| 2026-05-07 14:33 | 62.10601 | -7.53104 | 1376 ft | 220 kts | 110° |
| 2026-05-07 14:33 | 62.09975 | -7.50247 | 1282 ft | 206 kts | 110° |
| 2026-05-07 14:33 | 62.09371 | -7.47553 | 1150 ft | 194 kts | 109° |
| 2026-05-07 14:33 | 62.08976 | -7.44941 | 1050 ft | 178 kts | 99° |
| 2026-05-07 14:34 | 62.08753 | -7.42503 | 1022 ft | 159 kts | 97° |
| 2026-05-07 14:34 | 62.08553 | -7.40110 | 1064 ft | 163 kts | 97° |
| 2026-05-07 14:34 | 62.08366 | -7.37947 | 996 ft | 134 kts | 97° |
| 2026-05-07 14:34 | 62.08208 | -7.36069 | 794 ft | 126 kts | 98° |
| 2026-05-07 14:35 | 62.08008 | -7.34257 | 773 ft | 131 kts | 112° |
| 2026-05-07 14:35 | 62.07555 | -7.32542 | 653 ft | 130 kts | 113° |
| 2026-05-07 14:35 | 62.07114 | -7.30739 | 449 ft | 137 kts | 115° |
| 2026-05-07 14:35 | 62.06691 | -7.29043 | 287 ft | 116 kts | 115° |
| 2026-05-07 14:36 | 62.06367 | -7.27749 | 298 ft | 87 kts | 115° |
| 2026-05-07 14:36 | 62.06127 | -7.26779 | 270 ft | 57 kts | 117° |
| 2026-05-07 14:36 | 62.05986 | -7.26208 | 248 ft | 18 kts | 117° |
| 2026-05-07 14:36 | 62.05939 | -7.26004 | 246 ft | 9 kts | 162° |
| 2026-05-07 14:37 | 62.05935 | -7.26056 | 245 ft | 9 kts | 302° |
| 2026-05-07 14:37 | 62.06090 | -7.26632 | 266 ft | 27 kts | 298° |
| 2026-05-07 14:37 | 62.06173 | -7.26977 | 274 ft | 26 kts | 298° |
| 2026-05-07 14:38 | 62.06260 | -7.27305 | 284 ft | 25 kts | 291° |
| 2026-05-07 14:38 | 62.06368 | -7.27764 | 298 ft | 46 kts | 297° |
| 2026-05-07 14:38 | 62.06486 | -7.28166 | 299 ft | 12 kts | 343° |
| 2026-05-07 14:38 | 62.06534 | -7.28124 | 290 ft | 12 kts | 22° |
| 2026-05-07 14:39 | 62.06632 | -7.28070 | 290 ft | 13 kts | 41° |
| 2026-05-07 14:39 | 62.06660 | -7.27984 | 290 ft | 10 kts | 25° |
| 2026-05-07 14:39 | 62.06694 | -7.27943 | 289 ft | 0 kts | 28° |